createdAt,value
2018-01-22T00:01:09.958Z,97634.45
2018-01-22T00:03:38.309Z,97628.89
2018-01-22T00:06:06.657Z,97623.34
2018-01-22T00:08:35.769Z,97619.06
2018-01-22T00:11:04.109Z,97610.63
2018-01-22T00:13:32.451Z,97608.16
2018-01-22T00:16:00.793Z,97607.80
2018-01-22T00:18:29.888Z,97602.88
2018-01-22T00:20:59.465Z,97596.06
2018-01-22T00:23:27.807Z,97593.47
2018-01-22T00:25:56.127Z,97596.12
2018-01-22T00:28:24.469Z,97586.38
2018-01-22T00:30:52.794Z,97581.12
2018-01-22T00:33:21.874Z,97576.62
2018-01-22T00:35:50.205Z,97578.41
2018-01-22T00:38:18.541Z,97581.66
2018-01-22T00:40:46.862Z,97572.27
2018-01-22T00:43:15.186Z,97562.08
2018-01-22T00:45:43.524Z,97555.78
2018-01-22T00:48:11.842Z,97547.81
2018-01-22T00:50:40.185Z,97556.35
2018-01-22T00:53:08.520Z,97558.64
2018-01-22T00:55:36.857Z,97553.52
2018-01-22T00:58:05.230Z,97551.10
2018-01-22T01:00:33.558Z,97551.59
2018-01-22T01:03:01.896Z,97552.06
2018-01-22T01:05:30.236Z,97548.52
2018-01-22T01:07:58.555Z,97546.14
2018-01-22T01:10:26.901Z,97536.92
2018-01-22T01:12:55.243Z,97525.05
2018-01-22T01:15:23.576Z,97521.14
2018-01-22T01:17:51.889Z,97519.98
2018-01-22T01:20:20.202Z,97509.28
2018-01-22T01:22:48.536Z,97497.94
2018-01-22T01:25:18.221Z,97498.84
2018-01-22T01:27:46.612Z,97498.41
2018-01-22T01:30:14.906Z,97498.20
2018-01-22T01:32:44.004Z,97488.65
2018-01-22T01:35:12.331Z,97482.95
2018-01-22T01:37:40.664Z,97487.28
2018-01-22T01:40:09.754Z,97481.75
2018-01-22T01:42:38.074Z,97478.52
2018-01-22T01:45:06.404Z,97478.95
2018-01-22T01:47:35.494Z,97468.82
2018-01-22T01:50:05.282Z,97473.35
2018-01-22T01:52:33.633Z,97469.14
2018-01-22T01:55:01.950Z,97472.46
2018-01-22T01:57:30.280Z,97480.78
2018-01-22T01:59:58.626Z,97481.28
2018-01-22T02:02:26.956Z,97471.56
2018-01-22T02:04:55.305Z,97468.67
2018-01-22T02:07:23.632Z,97464.88
2018-01-22T02:09:51.967Z,97448.05
2018-01-22T02:12:20.292Z,97430.38
2018-01-22T02:14:48.618Z,97405.80
2018-01-22T02:17:16.963Z,97405.70
2018-01-22T02:19:46.026Z,97406.02
2018-01-22T02:22:14.344Z,97411.14
2018-01-22T02:24:42.666Z,97363.50
2018-01-22T02:27:10.998Z,97419.95
2018-01-22T02:29:40.092Z,97427.11
2018-01-22T02:32:08.515Z,97429.69
2018-01-22T02:34:36.884Z,97425.53
2018-01-22T02:37:05.212Z,97434.34
2018-01-22T02:39:33.557Z,97430.69
2018-01-22T02:42:03.259Z,97431.44
2018-01-22T02:44:31.601Z,97422.95
2018-01-22T02:46:59.918Z,97419.09
2018-01-22T02:49:28.270Z,97411.31
2018-01-22T02:51:56.587Z,97412.34
2018-01-22T02:54:24.935Z,97400.75
2018-01-22T02:56:53.268Z,97396.91
2018-01-22T02:59:21.614Z,97391.55
2018-01-22T03:01:49.938Z,97390.27
2018-01-22T03:04:18.284Z,97382.30
2018-01-22T03:06:46.615Z,97374.77
2018-01-22T03:09:14.973Z,97381.19
2018-01-22T03:11:43.300Z,97374.34
2018-01-22T03:14:11.628Z,97382.03
2018-01-22T03:16:40.781Z,97383.25
2018-01-22T03:19:09.097Z,97370.70
2018-01-22T03:21:38.234Z,97372.48
2018-01-22T03:24:07.963Z,97353.02
2018-01-22T03:26:36.278Z,97361.79
2018-01-22T03:29:04.612Z,97360.16
2018-01-22T03:31:32.962Z,97350.95
2018-01-22T03:34:01.304Z,97351.00
2018-01-22T03:36:29.618Z,97342.09
2018-01-22T03:38:58.320Z,97339.09
2018-01-22T03:41:26.653Z,97327.66
2018-01-22T03:43:55.756Z,97326.81
2018-01-22T03:46:24.087Z,97323.30
2018-01-22T03:48:53.169Z,97307.23
2018-01-22T03:51:22.269Z,97310.98
2018-01-22T03:53:50.601Z,97306.77
2018-01-22T03:56:18.932Z,97316.98
2018-01-22T03:58:47.254Z,97312.72
2018-01-22T04:01:15.602Z,97311.31
2018-01-22T04:03:43.915Z,97316.66
2018-01-22T04:06:12.241Z,97310.33
2018-01-22T04:08:40.563Z,97302.84
2018-01-22T04:11:08.896Z,97302.45
2018-01-22T04:13:37.232Z,97293.41
2018-01-22T04:16:05.572Z,97275.66
2018-01-22T04:18:33.893Z,97271.67
2018-01-22T04:21:02.233Z,97265.98
2018-01-22T04:23:31.318Z,97270.78
2018-01-22T04:25:59.640Z,97269.88
2018-01-22T04:28:28.014Z,97260.98
2018-01-22T04:30:56.342Z,97260.05
2018-01-22T04:33:25.559Z,97263.93
2018-01-22T04:35:53.905Z,97262.82
2018-01-22T04:38:22.234Z,97257.98
2018-01-22T04:40:50.570Z,97264.41
2018-01-22T04:43:18.915Z,97259.69
2018-01-22T04:45:47.240Z,97247.41
2018-01-22T04:48:16.340Z,97248.82
2018-01-22T04:50:45.430Z,97246.72
2018-01-22T04:53:13.736Z,97242.82
2018-01-22T04:55:42.072Z,97243.56
2018-01-22T04:58:10.399Z,97228.40
2018-01-22T05:00:38.753Z,97224.92
2018-01-22T05:03:08.864Z,97228.83
2018-01-22T05:05:37.200Z,97219.08
2018-01-22T05:08:05.538Z,97210.98
2018-01-22T05:10:33.882Z,97213.56
2018-01-22T05:13:02.220Z,97208.45
2018-01-22T05:15:30.556Z,97202.97
2018-01-22T05:17:59.650Z,97202.44
2018-01-22T05:20:29.141Z,97200.03
2018-01-22T05:22:57.472Z,97193.38
2018-01-22T05:25:25.827Z,97188.33
2018-01-22T05:27:54.146Z,97183.17
2018-01-22T05:30:22.480Z,97181.87
2018-01-22T05:32:50.796Z,97171.75
2018-01-22T05:35:19.162Z,97148.45
2018-01-22T05:37:47.525Z,97162.64
2018-01-22T05:40:15.846Z,97159.78
2018-01-22T05:42:44.185Z,97155.85
2018-01-22T05:45:12.528Z,97161.08
2018-01-22T05:47:40.868Z,97150.92
2018-01-22T05:50:09.201Z,97153.80
2018-01-22T05:52:37.551Z,97145.97
2018-01-22T05:55:05.901Z,97147.80
2018-01-22T05:57:34.217Z,97141.05
2018-01-22T06:00:03.361Z,97140.64
2018-01-22T06:02:32.553Z,97132.12
2018-01-22T06:05:00.879Z,97127.95
2018-01-22T06:07:30.372Z,97130.91
2018-01-22T06:09:58.707Z,97125.00
2018-01-22T06:12:27.061Z,97128.37
2018-01-22T06:14:55.404Z,97127.44
2018-01-22T06:17:23.738Z,97125.30
2018-01-22T06:19:52.121Z,97125.66
2018-01-22T06:22:20.447Z,97119.72
2018-01-22T06:24:48.794Z,97115.55
2018-01-22T06:27:17.152Z,97106.98
2018-01-22T06:29:45.501Z,97106.14
2018-01-22T06:32:13.826Z,97107.09
2018-01-22T06:34:42.151Z,97107.08
2018-01-22T06:37:10.470Z,97114.14
2018-01-22T06:39:38.798Z,97115.88
2018-01-22T06:42:07.143Z,97121.78
2018-01-22T06:44:35.474Z,97119.52
2018-01-22T06:47:03.821Z,97125.89
2018-01-22T06:49:32.157Z,97123.83
2018-01-22T06:52:01.079Z,97120.16
2018-01-22T06:54:29.433Z,97134.78
2018-01-22T06:56:58.137Z,97140.56
2018-01-22T06:59:26.458Z,97135.83
2018-01-22T07:01:54.796Z,97150.59
2018-01-22T07:04:23.140Z,97150.34
2018-01-22T07:06:51.453Z,97144.02
2018-01-22T07:09:19.796Z,97133.99
2018-01-22T07:11:48.125Z,97139.66
2018-01-22T07:14:16.508Z,97126.21
2018-01-22T07:16:45.393Z,97135.10
2018-01-22T07:19:15.629Z,97126.03
2018-01-22T07:21:44.713Z,97118.92
2018-01-22T07:24:13.820Z,97113.34
2018-01-22T07:26:42.133Z,97122.09
2018-01-22T07:29:10.461Z,97117.51
2018-01-22T07:31:38.802Z,97123.94
2018-01-22T07:34:07.490Z,97124.78
2018-01-22T07:36:36.098Z,97132.02
2018-01-22T07:39:04.413Z,97131.70
2018-01-22T07:41:32.832Z,97124.08
2018-01-22T07:44:01.167Z,97124.49
2018-01-22T07:46:30.391Z,97118.55
2018-01-22T07:48:58.705Z,97116.40
2018-01-22T07:51:27.031Z,97125.42
2018-01-22T07:53:55.358Z,97128.75
2018-01-22T07:56:23.680Z,97140.55
2018-01-22T07:58:52.016Z,97134.08
2018-01-22T08:01:20.356Z,97132.12
2018-01-22T08:03:48.713Z,97121.55
2018-01-22T08:06:17.052Z,97116.53
2018-01-22T08:08:45.630Z,97106.65
2018-01-22T08:11:14.261Z,97115.96
2018-01-22T08:13:42.591Z,97105.43
2018-01-22T08:16:10.896Z,97099.57
2018-01-22T08:18:40.166Z,97103.87
2018-01-22T08:21:08.578Z,97104.72
2018-01-22T08:23:37.680Z,97114.44
2018-01-22T08:26:06.003Z,97122.03
2018-01-22T08:28:34.380Z,97122.45
2018-01-22T08:31:02.711Z,97122.91
2018-01-22T08:33:31.868Z,97122.61
2018-01-22T08:36:00.199Z,97125.09
2018-01-22T08:38:28.517Z,97121.27
2018-01-22T08:40:56.857Z,97122.95
2018-01-22T08:43:25.758Z,97131.77
2018-01-22T08:45:54.077Z,97131.84
2018-01-22T08:48:22.390Z,97127.84
2018-01-22T08:50:50.731Z,97114.48
2018-01-22T08:53:19.045Z,97112.00
2018-01-22T08:55:47.392Z,97064.19
2018-01-22T08:58:15.725Z,97097.33
2018-01-22T09:00:44.120Z,97100.73
2018-01-22T09:03:12.438Z,97100.66
2018-01-22T09:05:41.541Z,97095.59
2018-01-22T09:08:09.870Z,97091.99
2018-01-22T09:10:38.194Z,97096.59
2018-01-22T09:13:07.288Z,97088.69
2018-01-22T09:15:35.606Z,97095.47
2018-01-22T09:18:03.934Z,97088.36
2018-01-22T09:20:33.036Z,97097.58
2018-01-22T09:23:02.510Z,97093.48
2018-01-22T09:25:30.856Z,97101.89
2018-01-22T09:27:59.201Z,97098.94
2018-01-22T09:30:28.502Z,97096.08
2018-01-22T09:32:56.814Z,97108.31
2018-01-22T09:35:25.152Z,97112.53
2018-01-22T09:37:53.528Z,97112.50
2018-01-22T09:40:22.602Z,97115.91
2018-01-22T09:42:50.933Z,97107.02
2018-01-22T09:45:19.249Z,97122.94
2018-01-22T09:47:47.574Z,97114.93
2018-01-22T09:50:15.932Z,97125.83
2018-01-22T09:52:45.024Z,97129.23
2018-01-22T09:55:13.366Z,97125.97
2018-01-22T09:57:41.696Z,97136.51
2018-01-22T10:00:10.024Z,97138.69
2018-01-22T10:02:38.386Z,97152.53
2018-01-22T10:05:06.715Z,97150.88
2018-01-22T10:07:35.044Z,97153.03
2018-01-22T10:10:03.372Z,97153.73
2018-01-22T10:12:31.690Z,97148.55
2018-01-22T10:15:00.036Z,97148.59
2018-01-22T10:17:29.607Z,97149.47
2018-01-22T10:19:57.926Z,97149.23
2018-01-22T10:22:26.259Z,97148.35
2018-01-22T10:24:54.617Z,97155.03
2018-01-22T10:27:22.938Z,97139.84
2018-01-22T10:29:51.272Z,97147.86
2018-01-22T10:32:19.590Z,97146.48
2018-01-22T10:34:48.673Z,97147.75
2018-01-22T10:37:16.999Z,97147.52
2018-01-22T10:39:45.322Z,97140.02
2018-01-22T10:42:13.646Z,97136.70
2018-01-22T10:44:41.962Z,97138.33
2018-01-22T10:47:10.283Z,97130.70
2018-01-22T10:49:38.628Z,97122.72
2018-01-22T10:52:06.946Z,97119.97
2018-01-22T10:54:35.262Z,97111.95
2018-01-22T10:57:03.578Z,97114.96
2018-01-22T10:59:31.892Z,97105.20
2018-01-22T11:02:00.409Z,97109.02
2018-01-22T11:04:28.708Z,97126.64
2018-01-22T11:06:57.062Z,97116.88
2018-01-22T11:09:25.404Z,97109.89
2018-01-22T11:11:53.718Z,97117.25
2018-01-22T11:14:22.037Z,97130.16
2018-01-22T11:16:51.128Z,97128.23
2018-01-22T11:19:20.115Z,97134.50
2018-01-22T11:21:48.457Z,97130.57
2018-01-22T11:24:16.801Z,97124.62
2018-01-22T11:26:45.110Z,97121.13
2018-01-22T11:29:14.878Z,97108.12
2018-01-22T11:31:43.194Z,97110.27
2018-01-22T11:34:11.533Z,97109.64
2018-01-22T11:36:41.433Z,97099.39
2018-01-22T11:39:10.714Z,97108.05
2018-01-22T11:41:39.037Z,97111.00
2018-01-22T11:44:07.368Z,97108.38
2018-01-22T11:46:35.695Z,97106.33
2018-01-22T11:49:04.019Z,97105.84
2018-01-22T11:51:32.365Z,97106.36
2018-01-22T11:54:00.675Z,97091.77
2018-01-22T11:56:29.002Z,97096.87
2018-01-22T11:58:57.314Z,97098.64
2018-01-22T12:01:25.654Z,97096.87
2018-01-22T12:03:53.981Z,97098.60
2018-01-22T12:06:22.305Z,97101.17
2018-01-22T12:08:50.623Z,97097.21
2018-01-22T12:11:18.991Z,97094.33
2018-01-22T12:13:47.350Z,97087.73
2018-01-22T12:16:16.450Z,97088.20
2018-01-22T12:18:44.757Z,97089.51
2018-01-22T12:21:13.099Z,97093.39
2018-01-22T12:23:41.434Z,97091.27
2018-01-22T12:26:10.159Z,97097.97
2018-01-22T12:28:38.598Z,97090.95
2018-01-22T12:31:07.736Z,97090.72
2018-01-22T12:33:36.064Z,97092.05
2018-01-22T12:36:04.404Z,97089.90
2018-01-22T12:38:32.744Z,97089.34
2018-01-22T12:41:01.831Z,97094.40
2018-01-22T12:43:30.169Z,97087.20
2018-01-22T12:45:58.505Z,97093.92
2018-01-22T12:48:26.836Z,97096.86
2018-01-22T12:50:55.169Z,97102.27
2018-01-22T12:53:23.556Z,97090.88
2018-01-22T12:55:51.936Z,97098.45
2018-01-22T12:58:20.262Z,97108.07
2018-01-22T13:00:48.586Z,97113.19
2018-01-22T13:03:16.936Z,97100.90
2018-01-22T13:05:45.263Z,97104.02
2018-01-22T13:08:13.590Z,97101.03
2018-01-22T13:10:41.949Z,97101.88
2018-01-22T13:13:10.273Z,97104.50
2018-01-22T13:15:38.605Z,97112.63
2018-01-22T13:18:06.935Z,97119.37
2018-01-22T13:20:35.254Z,97113.95
2018-01-22T13:23:03.583Z,97109.73
2018-01-22T13:25:37.312Z,97108.97
2018-01-22T13:28:05.634Z,97107.67
2018-01-22T13:30:33.976Z,97120.84
2018-01-22T13:33:02.320Z,97118.77
2018-01-22T13:35:30.662Z,97120.03
2018-01-22T13:37:59.812Z,97114.48
2018-01-22T13:40:33.522Z,97112.28
2018-01-22T13:43:01.852Z,97114.35
2018-01-22T13:45:30.165Z,97117.77
2018-01-22T13:47:58.496Z,97123.65
2018-01-22T13:50:26.836Z,97121.66
2018-01-22T13:52:55.154Z,97125.48
2018-01-22T13:55:24.238Z,97134.44
2018-01-22T13:57:53.105Z,97139.58
2018-01-22T14:00:21.509Z,97134.54
2018-01-22T14:02:51.186Z,97136.63
2018-01-22T14:05:19.540Z,97141.71
2018-01-22T14:07:47.870Z,97141.69
2018-01-22T14:10:16.962Z,97147.92
2018-01-22T14:12:45.279Z,97158.48
2018-01-22T14:15:13.613Z,97156.41
2018-01-22T14:17:41.936Z,97163.61
2018-01-22T14:20:10.258Z,97169.12
2018-01-22T14:22:38.578Z,97176.73
2018-01-22T14:25:06.899Z,97175.09
2018-01-22T14:27:35.223Z,97183.22
2018-01-22T14:30:03.560Z,97176.90
2018-01-22T14:32:31.874Z,97186.16
2018-01-22T14:35:00.212Z,97189.59
2018-01-22T14:37:28.549Z,97188.68
2018-01-22T14:39:56.892Z,97195.52
2018-01-22T14:42:25.210Z,97192.09
2018-01-22T14:44:53.542Z,97198.88
2018-01-22T14:47:21.881Z,97207.34
2018-01-22T14:49:50.209Z,97203.56
2018-01-22T14:52:18.544Z,97205.72
2018-01-22T14:54:46.883Z,97205.27
2018-01-22T14:57:15.208Z,97212.52
2018-01-22T14:59:43.530Z,97216.36
2018-01-22T15:02:12.609Z,97222.31
2018-01-22T15:04:40.922Z,97226.56
2018-01-22T15:07:09.236Z,97226.13
2018-01-22T15:09:37.575Z,97226.56
2018-01-22T15:12:05.909Z,97237.16
2018-01-22T15:14:34.249Z,97240.11
2018-01-22T15:17:02.595Z,97246.89
2018-01-22T15:19:30.934Z,97246.05
2018-01-22T15:21:59.276Z,97249.82
2018-01-22T15:24:27.616Z,97250.22
2018-01-22T15:26:56.705Z,97256.61
2018-01-22T15:29:25.027Z,97265.42
2018-01-22T15:31:53.364Z,97275.08
2018-01-22T15:34:22.455Z,97283.30
2018-01-22T15:36:50.783Z,97276.22
2018-01-22T15:39:19.106Z,97279.64
2018-01-22T15:41:48.196Z,97283.96
2018-01-22T15:44:16.525Z,97290.33
2018-01-22T15:46:44.864Z,97293.73
2018-01-22T15:49:13.960Z,97295.73
2018-01-22T15:51:43.230Z,97294.08
2018-01-22T15:54:11.557Z,97293.69
2018-01-22T15:56:39.890Z,97294.09
2018-01-22T15:59:08.228Z,97304.67
2018-01-22T16:01:36.562Z,97308.49
2018-01-22T16:04:04.873Z,97314.23
2018-01-22T16:06:33.226Z,97329.67
2018-01-22T16:09:01.543Z,97334.77
2018-01-22T16:11:29.880Z,97338.88
2018-01-22T16:13:58.975Z,97336.04
2018-01-22T16:16:27.293Z,97350.86
2018-01-22T16:18:55.605Z,97357.86
2018-01-22T16:21:23.934Z,97367.32
2018-01-22T16:23:52.270Z,97379.21
2018-01-22T16:26:20.599Z,97379.69
2018-01-22T16:28:48.926Z,97393.64
2018-01-22T16:31:17.264Z,97404.73
2018-01-22T16:33:45.585Z,97402.48
2018-01-22T16:36:14.679Z,97403.89
2018-01-22T16:38:43.027Z,97415.86
2018-01-22T16:41:11.413Z,97426.91
2018-01-22T16:43:39.753Z,97436.57
2018-01-22T16:46:08.239Z,97446.39
2018-01-22T16:48:36.587Z,97463.41
2018-01-22T16:51:04.911Z,97462.53
2018-01-22T16:53:33.269Z,97461.75
2018-01-22T16:56:01.613Z,97458.03
2018-01-22T16:58:30.694Z,97466.22
2018-01-22T17:00:59.027Z,97475.41
2018-01-22T17:03:27.339Z,97469.95
2018-01-22T17:05:55.670Z,97475.95
2018-01-22T17:08:24.047Z,97475.95
2018-01-22T17:10:52.563Z,97481.09
2018-01-22T17:13:20.906Z,97481.94
2018-01-22T17:15:49.353Z,97492.97
2018-01-22T17:18:18.544Z,97490.78
2018-01-22T17:20:47.665Z,97505.75
2018-01-22T17:23:15.983Z,97511.22
2018-01-22T17:25:44.400Z,97518.41
2018-01-22T17:28:13.042Z,97514.56
2018-01-22T17:30:41.485Z,97519.59
2018-01-22T17:33:10.099Z,97520.98
2018-01-22T17:35:38.576Z,97524.98
2018-01-22T17:38:06.924Z,97532.09
2018-01-22T17:40:35.700Z,97536.01
2018-01-22T17:43:04.607Z,97536.55
2018-01-22T17:45:33.321Z,97540.01
2018-01-22T17:48:01.751Z,97543.81
2018-01-22T17:50:30.476Z,97536.47
2018-01-22T17:52:59.317Z,97540.39
2018-01-22T17:55:28.563Z,97545.54
2018-01-22T17:57:57.466Z,97556.53
2018-01-22T18:00:27.286Z,97552.02
2018-01-22T18:02:55.796Z,97564.64
2018-01-22T18:05:27.756Z,97562.64
2018-01-22T18:07:57.462Z,97575.36
2018-01-22T18:10:27.341Z,97575.75
2018-01-22T18:12:57.125Z,97576.63
2018-01-22T18:15:27.023Z,97583.56
2018-01-22T18:17:56.818Z,97596.29
2018-01-22T18:20:26.602Z,97588.86
2018-01-22T18:22:56.613Z,97604.12
2018-01-22T18:25:26.466Z,97607.90
2018-01-22T18:27:56.470Z,97614.70
2018-01-22T18:30:26.444Z,97613.70
2018-01-22T18:32:57.172Z,97615.81
2018-01-22T18:35:27.094Z,97616.31
2018-01-22T18:37:56.942Z,97627.86
2018-01-22T18:40:26.756Z,97632.81
2018-01-22T18:42:56.853Z,97631.70
2018-01-22T18:45:27.308Z,97631.73
2018-01-22T18:47:57.194Z,97629.77
2018-01-22T18:50:27.006Z,97639.95
2018-01-22T18:52:56.872Z,97641.58
2018-01-22T18:55:26.800Z,97638.97
2018-01-22T18:57:56.804Z,97637.83
2018-01-22T19:00:26.640Z,97643.38
2018-01-22T19:02:56.471Z,97646.34
2018-01-22T19:05:27.198Z,97651.84
2018-01-22T19:07:57.004Z,97667.02
2018-01-22T19:10:26.862Z,97663.95
2018-01-22T19:12:57.660Z,97662.31
2018-01-22T19:15:27.574Z,97660.31
2018-01-22T19:17:58.126Z,97665.69
2018-01-22T19:20:28.592Z,97673.78
2018-01-22T19:22:59.238Z,97677.16
2018-01-22T19:25:29.129Z,97684.67
2018-01-22T19:27:58.940Z,97681.34
2018-01-22T19:30:29.351Z,97688.36
2018-01-22T19:32:59.295Z,97690.10
2018-01-22T19:35:29.174Z,97696.07
2018-01-22T19:37:59.433Z,97697.44
2018-01-22T19:40:30.169Z,97712.83
2018-01-22T19:43:00.066Z,97708.75
2018-01-22T19:45:29.961Z,97716.03
2018-01-22T19:47:59.867Z,97714.39
2018-01-22T19:50:30.398Z,97715.14
2018-01-22T19:53:00.487Z,97712.41
2018-01-22T19:55:30.347Z,97716.73
2018-01-22T19:58:00.342Z,97716.67
2018-01-22T20:00:30.263Z,97726.30
2018-01-22T20:03:00.206Z,97730.42
2018-01-22T20:05:30.997Z,97737.53
2018-01-22T20:08:00.858Z,97749.84
2018-01-22T20:10:30.777Z,97758.53
2018-01-22T20:13:00.620Z,97773.19
2018-01-22T20:15:30.508Z,97774.09
2018-01-22T20:18:00.495Z,97770.36
2018-01-22T20:20:30.377Z,97768.16
2018-01-22T20:23:01.215Z,97769.98
2018-01-22T20:25:31.127Z,97767.40
2018-01-22T20:28:02.536Z,97760.48
2018-01-22T20:30:32.674Z,97769.20
2018-01-22T20:33:03.321Z,97765.61
2018-01-22T20:35:33.313Z,97763.80
2018-01-22T20:38:04.117Z,97775.06
2018-01-22T20:40:34.184Z,97788.80
2018-01-22T20:43:05.089Z,97789.73
2018-01-22T20:45:35.050Z,97795.82
2018-01-22T20:48:05.872Z,97811.46
2018-01-22T20:50:35.784Z,97815.56
2018-01-22T20:53:06.936Z,97829.37
2018-01-22T20:55:36.829Z,97843.56
2018-01-22T20:58:07.800Z,97836.75
2018-01-22T21:00:37.793Z,97833.56
2018-01-22T21:03:07.815Z,97843.30
2018-01-22T21:05:37.629Z,97854.07
2018-01-22T21:08:07.683Z,97847.78
2018-01-22T21:10:37.663Z,97853.60
2018-01-22T21:13:07.587Z,97846.78
2018-01-22T21:15:37.492Z,97844.63
2018-01-22T21:18:07.368Z,97860.10
2018-01-22T21:20:37.231Z,97869.14
2018-01-22T21:23:07.175Z,97860.75
2018-01-22T21:25:37.100Z,97875.81
2018-01-22T21:28:06.990Z,97888.61
2018-01-22T21:30:36.912Z,97878.53
2018-01-22T21:33:07.554Z,97892.41
2018-01-22T21:35:37.425Z,97897.06
2018-01-22T21:38:07.540Z,97891.90
2018-01-22T21:40:37.489Z,97884.36
2018-01-22T21:43:08.270Z,97888.70
2018-01-22T21:45:38.128Z,97885.59
2018-01-22T21:48:08.182Z,97882.30
2018-01-22T21:50:38.008Z,97894.16
2018-01-22T21:53:07.908Z,97901.30
2018-01-22T21:55:38.435Z,97900.03
2018-01-22T21:58:08.268Z,97896.59
2018-01-22T22:00:38.931Z,97911.78
2018-01-22T22:03:08.835Z,97927.86
2018-01-22T22:05:38.543Z,97917.55
2018-01-22T22:08:08.358Z,97918.09
2018-01-22T22:10:38.137Z,97918.52
2018-01-22T22:13:07.841Z,97918.93
2018-01-22T22:15:37.129Z,97923.54
2018-01-22T22:18:06.166Z,97915.39
2018-01-22T22:20:34.866Z,97926.48
2018-01-22T22:23:03.668Z,97939.66
2018-01-22T22:25:32.166Z,97945.80
2018-01-22T22:28:00.538Z,97947.72
2018-01-22T22:30:28.859Z,97947.45
2018-01-22T22:32:57.201Z,97957.40
2018-01-22T22:35:25.558Z,97964.11
2018-01-22T22:37:53.883Z,97975.70
2018-01-22T22:40:22.985Z,97973.22
2018-01-22T22:42:51.321Z,97980.00
2018-01-22T22:45:19.669Z,97985.45
2018-01-22T22:47:48.048Z,97974.90
2018-01-22T22:50:16.413Z,97987.23
2018-01-22T22:52:44.757Z,97990.48
2018-01-22T22:55:13.096Z,97996.89
2018-01-22T22:57:41.433Z,98004.28
2018-01-22T23:00:10.551Z,98006.92
2018-01-22T23:02:38.884Z,98001.50
2018-01-22T23:05:07.226Z,98004.98
2018-01-22T23:07:35.562Z,98014.13
2018-01-22T23:10:03.891Z,98021.65
2018-01-22T23:12:32.204Z,98016.19
2018-01-22T23:15:00.545Z,98010.73
2018-01-22T23:17:28.873Z,98018.31
2018-01-22T23:19:57.198Z,98013.60
2018-01-22T23:22:25.534Z,98021.89
2018-01-22T23:24:53.853Z,98018.30
2018-01-22T23:27:22.174Z,98024.02
2018-01-22T23:29:50.508Z,98032.81
2018-01-22T23:32:21.363Z,98027.30
2018-01-22T23:34:49.723Z,98031.48
2018-01-22T23:37:18.099Z,98037.24
2018-01-22T23:39:46.431Z,98037.38
2018-01-22T23:42:14.756Z,98040.97
2018-01-22T23:44:43.104Z,98044.40
2018-01-22T23:47:11.436Z,98050.30
2018-01-22T23:49:39.772Z,98053.84
2018-01-22T23:52:08.109Z,98058.98
2018-01-22T23:54:36.444Z,98064.25
2018-01-22T23:57:04.785Z,98072.03
2018-01-22T23:59:33.102Z,98073.95
